createdAt,value
2023-05-09T00:00:07.980Z,996.50
2023-05-09T00:01:07.993Z,996.49
2023-05-09T00:02:07.998Z,996.52
2023-05-09T00:03:08.068Z,996.51
2023-05-09T00:04:08.023Z,996.53
2023-05-09T00:05:07.948Z,996.57
2023-05-09T00:06:08.193Z,996.59
2023-05-09T00:07:07.930Z,996.55
2023-05-09T00:08:07.930Z,996.61
2023-05-09T00:09:07.928Z,996.56
2023-05-09T00:10:08.009Z,996.59
2023-05-09T00:11:07.905Z,996.59
2023-05-09T00:12:07.913Z,996.59
2023-05-09T00:13:07.937Z,996.53
2023-05-09T00:14:07.880Z,996.53
2023-05-09T00:15:07.872Z,996.56
2023-05-09T00:16:07.875Z,996.49
2023-05-09T00:17:07.855Z,996.52
2023-05-09T00:18:07.849Z,996.53
2023-05-09T00:19:07.866Z,996.54
2023-05-09T00:20:07.831Z,996.54
2023-05-09T00:22:07.983Z,996.49
2023-05-09T00:23:07.966Z,996.44
2023-05-09T00:24:09.107Z,996.51
2023-05-09T00:25:09.028Z,996.53
2023-05-09T00:26:09.119Z,996.52
2023-05-09T00:27:09.024Z,996.54
2023-05-09T00:28:09.015Z,996.49
2023-05-09T00:29:08.999Z,996.43
2023-05-09T00:30:09.019Z,996.46
2023-05-09T00:31:09.001Z,996.45
2023-05-09T00:32:09.042Z,996.45
2023-05-09T00:33:09.045Z,996.42
2023-05-09T00:34:08.967Z,996.44
2023-05-09T00:35:08.964Z,996.43
2023-05-09T00:36:08.992Z,996.43
2023-05-09T00:37:08.952Z,996.41
2023-05-09T00:38:08.955Z,996.39
2023-05-09T00:39:08.929Z,996.37
2023-05-09T00:40:08.916Z,996.36
2023-05-09T00:41:08.921Z,996.31
2023-05-09T00:42:09.008Z,996.27
2023-05-09T00:43:08.907Z,996.30
2023-05-09T00:44:08.910Z,996.26
2023-05-09T00:45:08.882Z,996.26
2023-05-09T00:46:08.902Z,996.29
2023-05-09T00:47:08.901Z,996.28
2023-05-09T00:48:08.863Z,996.31
2023-05-09T00:49:08.868Z,996.28
2023-05-09T00:50:08.854Z,996.31
2023-05-09T00:51:08.833Z,996.25
2023-05-09T00:52:08.828Z,996.19
2023-05-09T00:53:08.820Z,996.22
2023-05-09T00:54:09.340Z,996.17
2023-05-09T00:55:09.799Z,996.11
2023-05-09T00:56:08.791Z,996.14
2023-05-09T00:57:08.788Z,996.15
2023-05-09T00:58:08.886Z,996.15
2023-05-09T00:59:08.775Z,996.15
2023-05-09T01:00:08.762Z,996.12
2023-05-09T01:01:08.823Z,996.10
2023-05-09T01:02:08.752Z,996.11
2023-05-09T01:03:08.840Z,996.08
2023-05-09T01:04:08.741Z,996.03
2023-05-09T01:05:08.726Z,996.06
2023-05-09T01:06:08.744Z,996.04
2023-05-09T01:07:08.717Z,996.03
2023-05-09T01:08:08.707Z,996.03
2023-05-09T01:09:08.718Z,995.99
2023-05-09T01:10:08.691Z,996.09
2023-05-09T01:11:08.756Z,996.04
2023-05-09T01:12:08.671Z,996.05
2023-05-09T01:13:08.737Z,996.06
2023-05-09T01:14:08.755Z,996.03
2023-05-09T01:15:08.650Z,996.05
2023-05-09T01:16:08.767Z,996.03
2023-05-09T01:17:08.627Z,995.91
2023-05-09T01:18:08.710Z,996.02
2023-05-09T01:19:08.616Z,995.97
2023-05-09T01:20:08.620Z,995.97
2023-05-09T01:21:08.607Z,996.04
2023-05-09T01:22:08.592Z,995.98
2023-05-09T01:23:08.582Z,995.99
2023-05-09T01:24:09.582Z,995.96
2023-05-09T01:25:08.575Z,995.98
2023-05-09T01:26:08.577Z,995.92
2023-05-09T01:27:08.548Z,995.91
2023-05-09T01:28:08.546Z,995.97
2023-05-09T01:29:08.536Z,995.93
2023-05-09T01:30:09.513Z,995.95
2023-05-09T01:31:08.555Z,995.90
2023-05-09T01:32:09.407Z,995.95
2023-05-09T01:33:08.572Z,995.94
2023-05-09T01:34:08.591Z,995.92
2023-05-09T01:35:08.500Z,995.88
2023-05-09T01:36:08.469Z,995.85
2023-05-09T01:37:09.528Z,995.88
2023-05-09T01:38:08.461Z,995.91
2023-05-09T01:39:08.480Z,995.91
2023-05-09T01:40:08.514Z,995.94
2023-05-09T01:41:08.456Z,995.96
2023-05-09T01:42:08.447Z,995.89
2023-05-09T01:43:08.412Z,995.92
2023-05-09T01:44:09.493Z,995.88
2023-05-09T01:45:08.408Z,995.92
2023-05-09T01:46:09.521Z,995.90
2023-05-09T01:47:08.436Z,995.91
2023-05-09T01:48:08.473Z,995.87
2023-05-09T01:49:08.375Z,995.86
2023-05-09T01:50:08.387Z,995.84
2023-05-09T01:51:08.385Z,995.83
2023-05-09T01:52:08.367Z,995.84
2023-05-09T01:53:08.351Z,995.81
2023-05-09T01:54:08.352Z,995.82
2023-05-09T01:55:08.336Z,995.81
2023-05-09T01:56:08.332Z,995.84
2023-05-09T01:57:08.311Z,995.83
2023-05-09T01:58:08.316Z,995.85
2023-05-09T01:59:08.311Z,995.80
2023-05-09T02:00:08.299Z,995.82
2023-05-09T02:01:08.318Z,995.82
2023-05-09T02:02:08.423Z,995.83
2023-05-09T02:03:08.328Z,995.81
2023-05-09T02:04:08.257Z,995.81
2023-05-09T02:05:08.266Z,995.84
2023-05-09T02:06:08.254Z,995.80
2023-05-09T02:07:08.239Z,995.76
2023-05-09T02:08:08.232Z,995.80
2023-05-09T02:09:08.226Z,995.79
2023-05-09T02:10:08.223Z,995.79
2023-05-09T02:11:08.207Z,995.84
2023-05-09T02:12:08.200Z,995.79
2023-05-09T02:13:08.268Z,995.74
2023-05-09T02:14:08.916Z,995.77
2023-05-09T02:15:08.177Z,995.75
2023-05-09T02:16:08.235Z,995.78
2023-05-09T02:17:08.154Z,995.75
2023-05-09T02:18:08.252Z,995.74
2023-05-09T02:19:08.147Z,995.80
2023-05-09T02:20:08.139Z,995.74
2023-05-09T02:21:08.202Z,995.71
2023-05-09T02:22:08.129Z,995.68
2023-05-09T02:23:08.116Z,995.73
2023-05-09T02:24:08.167Z,995.71
2023-05-09T02:25:10.026Z,995.66
2023-05-09T02:26:08.093Z,995.70
2023-05-09T02:27:08.097Z,995.70
2023-05-09T02:28:08.076Z,995.71
2023-05-09T02:29:08.058Z,995.75
2023-05-09T02:30:08.043Z,995.71
2023-05-09T02:31:08.046Z,995.76
2023-05-09T02:32:08.119Z,995.67
2023-05-09T02:33:08.055Z,995.73
2023-05-09T02:34:08.118Z,995.72
2023-05-09T02:35:08.012Z,995.68
2023-05-09T02:36:08.011Z,995.70
2023-05-09T02:37:08.005Z,995.71
2023-05-09T02:38:07.991Z,995.68
2023-05-09T02:39:07.989Z,995.69
2023-05-09T02:40:07.964Z,995.62
2023-05-09T02:41:08.930Z,995.69
2023-05-09T02:42:07.962Z,995.66
2023-05-09T02:43:07.944Z,995.66
2023-05-09T02:44:07.935Z,995.68
2023-05-09T02:45:07.968Z,995.68
2023-05-09T02:46:07.959Z,995.70
2023-05-09T02:47:07.918Z,995.70
2023-05-09T02:48:08.944Z,995.68
2023-05-09T02:49:10.108Z,995.62
2023-05-09T02:50:07.987Z,995.71
2023-05-09T02:51:07.882Z,995.71
2023-05-09T02:52:07.886Z,995.71
2023-05-09T02:53:07.899Z,995.72
2023-05-09T02:54:07.873Z,995.72
2023-05-09T02:55:07.854Z,995.69
2023-05-09T02:56:07.843Z,995.66
2023-05-09T02:57:07.833Z,995.63
2023-05-09T02:58:14.105Z,995.64
2023-05-09T02:59:09.836Z,995.62
2023-05-09T03:00:07.813Z,995.60
2023-05-09T03:01:07.808Z,995.59
2023-05-09T03:02:07.798Z,995.56
2023-05-09T03:03:08.065Z,995.59
2023-05-09T03:04:07.787Z,995.59
2023-05-09T03:05:07.790Z,995.58
2023-05-09T03:06:07.868Z,995.62
2023-05-09T03:07:07.819Z,995.61
2023-05-09T03:08:07.759Z,995.61
2023-05-09T03:09:07.731Z,995.64
2023-05-09T03:10:07.728Z,995.70
2023-05-09T03:11:07.721Z,995.58
2023-05-09T03:12:08.436Z,995.60
2023-05-09T03:13:07.736Z,995.56
2023-05-09T03:14:07.704Z,995.51
2023-05-09T03:15:07.688Z,995.61
2023-05-09T03:16:07.716Z,995.55
2023-05-09T03:17:07.690Z,995.54
2023-05-09T03:18:07.739Z,995.53
2023-05-09T03:19:07.692Z,995.50
2023-05-09T03:20:07.729Z,995.54
2023-05-09T03:21:07.646Z,995.55
2023-05-09T03:22:07.756Z,995.50
2023-05-09T03:23:07.632Z,995.49
2023-05-09T03:24:07.710Z,995.49
2023-05-09T03:25:07.654Z,995.49
2023-05-09T03:26:07.614Z,995.43
2023-05-09T03:27:07.603Z,995.37
2023-05-09T03:28:07.588Z,995.41
2023-05-09T03:29:07.597Z,995.40
2023-05-09T03:30:07.569Z,995.43
2023-05-09T03:31:07.583Z,995.35
2023-05-09T03:32:07.586Z,995.39
2023-05-09T03:33:07.595Z,995.43
2023-05-09T03:34:07.554Z,995.39
2023-05-09T03:35:07.529Z,995.42
2023-05-09T03:36:07.530Z,995.38
2023-05-09T03:37:07.525Z,995.36
2023-05-09T03:38:07.622Z,995.39
2023-05-09T03:39:07.514Z,995.36
2023-05-09T03:40:07.517Z,995.36
2023-05-09T03:41:07.492Z,995.40
2023-05-09T03:42:07.533Z,995.42
2023-05-09T03:43:07.488Z,995.35
2023-05-09T03:44:07.479Z,995.42
2023-05-09T03:45:07.480Z,995.42
2023-05-09T03:46:07.461Z,995.39
2023-05-09T03:47:07.553Z,995.36
2023-05-09T03:48:08.410Z,995.41
2023-05-09T03:49:07.949Z,995.40
2023-05-09T03:50:07.426Z,995.46
2023-05-09T03:51:07.426Z,995.43
2023-05-09T03:52:07.420Z,995.46
2023-05-09T03:53:07.428Z,995.40
2023-05-09T03:54:07.492Z,995.40
2023-05-09T03:55:08.412Z,995.41
2023-05-09T03:56:07.376Z,995.34
2023-05-09T03:57:08.367Z,995.31
2023-05-09T03:58:07.365Z,995.29
2023-05-09T03:59:07.408Z,995.27
2023-05-09T04:00:07.949Z,995.24
2023-05-09T04:01:07.349Z,995.24
2023-05-09T04:02:07.358Z,995.28
2023-05-09T04:03:07.361Z,995.23
2023-05-09T04:04:07.481Z,995.29
2023-05-09T04:05:07.328Z,995.24
2023-05-09T04:06:07.316Z,995.24
2023-05-09T04:07:07.296Z,995.28
2023-05-09T04:08:07.291Z,995.21
2023-05-09T04:09:07.282Z,995.25
2023-05-09T04:10:07.369Z,995.16
2023-05-09T04:11:07.280Z,995.15
2023-05-09T04:12:07.252Z,995.25
2023-05-09T04:13:07.255Z,995.17
2023-05-09T04:14:07.387Z,995.22
2023-05-09T04:15:07.238Z,995.20
2023-05-09T04:16:07.237Z,995.19
2023-05-09T04:17:07.287Z,995.14
2023-05-09T04:18:07.263Z,995.20
2023-05-09T04:19:07.213Z,995.17
2023-05-09T04:20:07.186Z,995.19
2023-05-09T04:21:07.210Z,995.15
2023-05-09T04:22:07.172Z,995.18
2023-05-09T04:23:07.174Z,995.21
2023-05-09T04:24:07.175Z,995.23
2023-05-09T04:25:07.153Z,995.17
2023-05-09T04:26:07.157Z,995.23
2023-05-09T04:27:07.134Z,995.14
2023-05-09T04:28:07.178Z,995.17
2023-05-09T04:29:07.131Z,995.10
2023-05-09T04:30:07.119Z,995.15
2023-05-09T04:31:07.268Z,995.21
2023-05-09T04:32:07.129Z,995.14
2023-05-09T04:33:07.105Z,995.14
2023-05-09T04:34:07.089Z,995.18
2023-05-09T04:35:07.074Z,995.12
2023-05-09T04:36:07.083Z,995.18
2023-05-09T04:37:07.095Z,995.15
2023-05-09T04:38:07.065Z,995.19
2023-05-09T04:39:07.041Z,995.13
2023-05-09T04:40:07.051Z,995.13
2023-05-09T04:41:07.047Z,995.12
2023-05-09T04:42:07.127Z,995.09
2023-05-09T04:43:07.028Z,995.00
2023-05-09T04:44:07.002Z,995.06
2023-05-09T04:45:06.998Z,995.06
2023-05-09T04:46:07.002Z,995.03
2023-05-09T04:47:07.005Z,995.12
2023-05-09T04:48:07.020Z,995.09
2023-05-09T04:49:06.963Z,995.10
2023-05-09T04:50:06.963Z,995.12
2023-05-09T04:51:06.950Z,995.06
2023-05-09T04:52:06.955Z,995.11
2023-05-09T04:53:06.939Z,995.01
2023-05-09T04:54:06.922Z,995.05
2023-05-09T04:55:06.917Z,995.05
2023-05-09T04:56:06.912Z,995.09
2023-05-09T04:57:17.216Z,995.06
2023-05-09T04:58:09.006Z,995.12
2023-05-09T04:59:07.867Z,995.08
2023-05-09T05:00:06.879Z,995.02
2023-05-09T05:01:06.880Z,995.02
2023-05-09T05:02:07.433Z,994.98
2023-05-09T05:03:06.903Z,995.01
2023-05-09T05:04:06.859Z,995.01
2023-05-09T05:05:12.086Z,995.00
2023-05-09T05:06:08.846Z,995.01
2023-05-09T05:07:06.830Z,995.00
2023-05-09T05:08:06.856Z,994.96
2023-05-09T05:09:06.804Z,994.99
2023-05-09T05:10:06.797Z,994.98
2023-05-09T05:11:06.807Z,995.00
2023-05-09T05:12:09.194Z,995.01
2023-05-09T05:13:06.839Z,995.02
2023-05-09T05:14:06.874Z,994.99
2023-05-09T05:15:06.766Z,994.96
2023-05-09T05:16:06.826Z,995.00
2023-05-09T05:17:06.743Z,995.05
2023-05-09T05:18:06.769Z,995.05
2023-05-09T05:19:06.722Z,995.00
2023-05-09T05:20:06.755Z,995.02
2023-05-09T05:21:06.712Z,995.02
2023-05-09T05:22:06.705Z,995.03
2023-05-09T05:23:06.707Z,994.91
2023-05-09T05:24:06.698Z,994.95
2023-05-09T05:25:06.681Z,994.98
2023-05-09T05:26:06.682Z,994.98
2023-05-09T05:27:06.668Z,994.99
2023-05-09T05:28:06.690Z,994.96
2023-05-09T05:29:06.713Z,994.94
2023-05-09T05:30:06.757Z,994.96
2023-05-09T05:31:06.764Z,994.97
2023-05-09T05:32:06.747Z,994.97
2023-05-09T05:33:06.777Z,994.94
2023-05-09T05:34:06.700Z,994.95
2023-05-09T05:35:06.671Z,994.91
2023-05-09T05:36:06.710Z,994.97
2023-05-09T05:37:06.707Z,995.00
2023-05-09T05:38:06.591Z,995.01
2023-05-09T05:39:06.574Z,994.98
2023-05-09T05:40:06.572Z,994.89
2023-05-09T05:41:06.919Z,994.89
2023-05-09T05:42:06.575Z,994.93
2023-05-09T05:43:06.563Z,994.93
2023-05-09T05:44:06.541Z,994.89
2023-05-09T05:45:08.421Z,994.91
2023-05-09T05:46:07.607Z,994.89
2023-05-09T05:47:06.513Z,994.89
2023-05-09T05:48:06.574Z,994.84
2023-05-09T05:49:06.510Z,994.87
2023-05-09T05:50:07.486Z,994.84
2023-05-09T05:51:06.474Z,994.78
2023-05-09T05:52:06.464Z,994.81
2023-05-09T05:53:06.524Z,994.78
2023-05-09T05:54:06.460Z,994.77
2023-05-09T05:55:06.467Z,994.78
2023-05-09T05:56:06.453Z,994.75
2023-05-09T05:58:13.263Z,994.77
2023-05-09T05:59:13.650Z,994.74
2023-05-09T06:00:16.136Z,994.74
2023-05-09T06:01:14.618Z,994.74
2023-05-09T06:02:14.394Z,994.69
2023-05-09T06:03:14.519Z,994.72
2023-05-09T06:04:14.438Z,994.74
2023-05-09T06:05:14.551Z,994.75
2023-05-09T06:06:14.307Z,994.72
2023-05-09T06:07:14.282Z,994.71
2023-05-09T06:08:14.324Z,994.70
2023-05-09T06:09:14.289Z,994.71
2023-05-09T06:10:14.265Z,994.67
2023-05-09T06:11:14.267Z,994.67
2023-05-09T06:12:14.283Z,994.67
2023-05-09T06:13:14.288Z,994.64
2023-05-09T06:14:14.239Z,994.62
2023-05-09T06:15:14.469Z,994.66
2023-05-09T06:16:19.645Z,994.60
2023-05-09T06:17:16.342Z,994.58
2023-05-09T06:18:14.210Z,994.66
2023-05-09T06:19:14.219Z,994.63
2023-05-09T06:20:14.198Z,994.62
2023-05-09T06:21:14.189Z,994.59
2023-05-09T06:22:14.189Z,994.64
2023-05-09T06:23:14.168Z,994.62
2023-05-09T06:24:23.500Z,994.64
2023-05-09T06:25:16.374Z,994.57
2023-05-09T06:26:14.144Z,994.53
2023-05-09T06:27:14.234Z,994.54
2023-05-09T06:28:14.640Z,994.50
2023-05-09T06:29:14.717Z,994.50
2023-05-09T06:30:24.657Z,994.35
2023-05-09T06:31:16.162Z,994.43
2023-05-09T06:32:14.174Z,994.48
2023-05-09T06:33:14.188Z,994.42
2023-05-09T06:34:14.086Z,994.45
2023-05-09T06:35:14.284Z,994.47
2023-05-09T06:36:14.060Z,994.46
2023-05-09T06:37:14.061Z,994.47
2023-05-09T06:38:14.049Z,994.43
2023-05-09T06:39:14.038Z,994.41
2023-05-09T06:40:14.043Z,994.36
2023-05-09T06:41:14.041Z,994.38
2023-05-09T06:42:14.014Z,994.38
2023-05-09T06:43:14.031Z,994.34
2023-05-09T06:44:14.999Z,994.41
2023-05-09T06:45:14.149Z,994.37
2023-05-09T06:46:14.019Z,994.38
2023-05-09T06:47:13.978Z,994.36
2023-05-09T06:48:14.649Z,994.35
2023-05-09T06:49:14.065Z,994.33
2023-05-09T06:50:14.647Z,994.33
2023-05-09T06:51:13.948Z,994.31
2023-05-09T06:52:13.934Z,994.25
2023-05-09T06:53:14.683Z,994.21
2023-05-09T06:54:13.928Z,994.30
2023-05-09T06:55:14.166Z,994.30
2023-05-09T06:56:13.910Z,994.27
2023-05-09T06:57:13.901Z,994.23
2023-05-09T06:58:13.897Z,994.18
2023-05-09T06:59:13.884Z,994.20
2023-05-09T07:00:13.892Z,994.08
2023-05-09T07:01:13.918Z,994.15
2023-05-09T07:02:13.852Z,994.15
2023-05-09T07:03:13.868Z,994.16
2023-05-09T07:04:13.853Z,994.17
2023-05-09T07:05:14.106Z,994.15
2023-05-09T07:06:13.834Z,994.11
2023-05-09T07:07:13.819Z,994.16
2023-05-09T07:08:13.807Z,994.14
2023-05-09T07:09:13.814Z,994.09
2023-05-09T07:10:13.830Z,994.10
2023-05-09T07:11:13.816Z,994.08
2023-05-09T07:12:13.785Z,994.11
2023-05-09T07:13:13.827Z,994.09
2023-05-09T07:14:13.780Z,994.00
2023-05-09T07:15:15.563Z,994.00
2023-05-09T07:16:14.782Z,994.02
2023-05-09T07:17:22.972Z,993.98
2023-05-09T07:18:15.725Z,993.93
2023-05-09T07:19:13.748Z,993.94
2023-05-09T07:20:13.729Z,993.98
2023-05-09T07:21:13.807Z,993.91
2023-05-09T07:22:13.747Z,993.91
2023-05-09T07:23:14.662Z,993.92
2023-05-09T07:24:13.736Z,993.88
2023-05-09T07:25:13.780Z,993.81
2023-05-09T07:26:14.275Z,993.90
2023-05-09T07:27:13.699Z,993.82
2023-05-09T07:28:13.645Z,993.79
2023-05-09T07:29:13.643Z,993.78
2023-05-09T07:30:14.418Z,993.78
2023-05-09T07:31:13.658Z,993.82
2023-05-09T07:32:13.741Z,993.75
2023-05-09T07:33:13.663Z,993.76
2023-05-09T07:34:13.639Z,993.74
2023-05-09T07:35:13.735Z,993.72
2023-05-09T07:36:13.588Z,993.70
2023-05-09T07:37:15.377Z,993.67
2023-05-09T07:38:13.580Z,993.71
2023-05-09T07:39:13.567Z,993.67
2023-05-09T07:40:13.820Z,993.70
2023-05-09T07:41:13.560Z,993.67
2023-05-09T07:42:13.552Z,993.63
2023-05-09T07:43:13.542Z,993.65
2023-05-09T07:44:13.524Z,993.52
2023-05-09T07:45:13.726Z,993.50
2023-05-09T07:46:13.556Z,993.46
2023-05-09T07:47:13.510Z,993.53
2023-05-09T07:48:13.503Z,993.44
2023-05-09T07:49:13.507Z,993.51
2023-05-09T07:50:13.496Z,993.44
2023-05-09T07:51:13.483Z,993.46
2023-05-09T07:52:13.475Z,993.47
2023-05-09T07:53:13.556Z,993.46
2023-05-09T07:54:13.449Z,993.48
2023-05-09T07:55:13.805Z,993.39
2023-05-09T07:56:13.434Z,993.43
2023-05-09T07:57:13.435Z,993.37
2023-05-09T07:58:14.262Z,993.34
2023-05-09T07:59:13.442Z,993.29
2023-05-09T08:00:13.403Z,993.27
2023-05-09T08:01:13.421Z,993.28
2023-05-09T08:02:13.443Z,993.31
2023-05-09T08:03:13.517Z,993.24
2023-05-09T08:04:13.495Z,993.27
2023-05-09T08:05:13.698Z,993.26
2023-05-09T08:06:13.358Z,993.23
2023-05-09T08:07:13.408Z,993.23
2023-05-09T08:08:13.338Z,993.16
2023-05-09T08:09:13.456Z,993.21
2023-05-09T08:10:13.334Z,993.24
2023-05-09T08:11:13.326Z,993.23
2023-05-09T08:12:13.335Z,993.27
2023-05-09T08:13:13.319Z,993.21
2023-05-09T08:14:15.035Z,993.23
2023-05-09T08:15:13.769Z,993.19
2023-05-09T08:16:13.337Z,993.21
2023-05-09T08:17:13.294Z,993.15
2023-05-09T08:18:13.285Z,993.10
2023-05-09T08:19:13.275Z,993.16
2023-05-09T08:20:13.274Z,993.05
2023-05-09T08:21:14.280Z,993.09
2023-05-09T08:22:13.248Z,993.09
2023-05-09T08:23:13.247Z,993.09
2023-05-09T08:24:13.235Z,993.07
2023-05-09T08:25:13.563Z,993.03
2023-05-09T08:26:13.204Z,993.04
2023-05-09T08:27:13.199Z,993.08
2023-05-09T08:28:13.187Z,993.02
2023-05-09T08:29:13.180Z,993.01
2023-05-09T08:30:13.198Z,992.99
2023-05-09T08:31:13.204Z,992.99
2023-05-09T08:32:13.204Z,992.96
2023-05-09T08:33:13.207Z,992.98
2023-05-09T08:34:13.160Z,992.97
2023-05-09T08:35:13.288Z,992.95
2023-05-09T08:36:13.189Z,992.95
2023-05-09T08:37:15.095Z,992.98
2023-05-09T08:38:14.133Z,992.99
2023-05-09T08:39:13.106Z,993.05
2023-05-09T08:40:13.895Z,992.97
2023-05-09T08:41:13.201Z,993.02
2023-05-09T08:42:13.101Z,992.99
2023-05-09T08:43:13.088Z,993.00
2023-05-09T08:44:13.074Z,992.99
2023-05-09T08:45:13.081Z,993.04
2023-05-09T08:46:13.076Z,992.98
2023-05-09T08:47:13.049Z,992.92
2023-05-09T08:48:13.042Z,992.91
2023-05-09T08:49:13.042Z,992.89
2023-05-09T08:50:13.380Z,992.93
2023-05-09T08:51:13.037Z,992.79
2023-05-09T08:52:13.002Z,992.80
2023-05-09T08:53:13.725Z,992.78
2023-05-09T08:54:13.009Z,992.72
2023-05-09T08:55:13.037Z,992.79
2023-05-09T08:56:12.985Z,992.80
2023-05-09T08:57:13.082Z,992.80
2023-05-09T08:58:12.979Z,992.76
2023-05-09T08:59:12.983Z,992.78
2023-05-09T09:00:13.147Z,992.73
2023-05-09T09:01:15.742Z,992.73
2023-05-09T09:02:12.971Z,992.73
2023-05-09T09:04:19.865Z,992.77
2023-05-09T09:05:40.053Z,992.65
2023-05-09T09:06:20.798Z,992.63
2023-05-09T09:07:20.785Z,992.66
2023-05-09T09:08:19.803Z,992.67
2023-05-09T09:09:20.629Z,992.62
2023-05-09T09:10:19.779Z,992.63
2023-05-09T09:11:20.860Z,992.66
2023-05-09T09:12:20.947Z,992.69
2023-05-09T09:13:20.888Z,992.67
2023-05-09T09:14:20.853Z,992.65
2023-05-09T09:15:20.850Z,992.63
2023-05-09T09:16:20.970Z,992.63
2023-05-09T09:17:20.858Z,992.62
2023-05-09T09:18:21.696Z,992.63
2023-05-09T09:19:20.809Z,992.56
2023-05-09T09:20:20.833Z,992.56
2023-05-09T09:21:20.939Z,992.57
2023-05-09T09:22:20.814Z,992.48
2023-05-09T09:23:21.625Z,992.53
2023-05-09T09:25:27.477Z,992.51
2023-05-09T09:26:27.476Z,992.49
2023-05-09T09:27:27.571Z,992.47
2023-05-09T09:28:27.457Z,992.51
2023-05-09T09:29:27.445Z,992.47
2023-05-09T09:30:27.432Z,992.44
2023-05-09T09:31:27.450Z,992.45
2023-05-09T09:32:27.477Z,992.41
2023-05-09T09:33:27.430Z,992.37
2023-05-09T09:34:27.432Z,992.42
2023-05-09T09:35:27.397Z,992.40
2023-05-09T09:36:27.392Z,992.34
2023-05-09T09:37:28.497Z,992.37
2023-05-09T09:38:29.469Z,992.38
2023-05-09T09:39:29.022Z,992.38
2023-05-09T09:40:28.473Z,992.43
2023-05-09T09:41:28.456Z,992.35
2023-05-09T09:42:28.455Z,992.36
2023-05-09T09:43:30.396Z,992.37
2023-05-09T09:44:28.496Z,992.38
2023-05-09T09:45:28.425Z,992.37
2023-05-09T09:46:28.484Z,992.32
2023-05-09T09:47:28.456Z,992.30
2023-05-09T09:48:28.750Z,992.31
2023-05-09T09:49:28.405Z,992.29
2023-05-09T09:50:28.384Z,992.26
2023-05-09T09:51:28.386Z,992.15
2023-05-09T09:52:30.210Z,992.15
2023-05-09T09:53:28.373Z,992.15
2023-05-09T09:54:28.401Z,992.21
2023-05-09T09:55:28.386Z,992.14
2023-05-09T09:56:28.354Z,992.15
2023-05-09T09:57:29.242Z,992.17
2023-05-09T09:58:28.318Z,992.14
2023-05-09T09:59:29.430Z,992.17
2023-05-09T10:00:30.256Z,992.17
2023-05-09T10:01:30.205Z,992.14
2023-05-09T10:02:28.318Z,992.12
2023-05-09T10:03:28.310Z,992.08
2023-05-09T10:04:28.272Z,992.08
2023-05-09T10:05:28.257Z,992.04
2023-05-09T10:06:29.144Z,992.03
2023-05-09T10:07:28.287Z,991.98
2023-05-09T10:08:31.156Z,991.99
2023-05-09T10:09:29.255Z,991.95
2023-05-09T10:10:30.317Z,991.99
2023-05-09T10:11:28.223Z,991.95
2023-05-09T10:12:28.230Z,991.93
2023-05-09T10:13:28.287Z,991.92
2023-05-09T10:14:29.209Z,991.88
2023-05-09T10:15:30.118Z,991.89
2023-05-09T10:16:42.605Z,991.89
2023-05-09T10:17:30.285Z,991.83
2023-05-09T10:18:29.180Z,991.81
2023-05-09T10:19:28.158Z,991.86
2023-05-09T10:20:28.663Z,991.88
2023-05-09T10:21:29.161Z,991.82
2023-05-09T10:22:28.138Z,991.81
2023-05-09T10:23:29.639Z,991.81
2023-05-09T10:24:28.149Z,991.82
2023-05-09T10:25:28.165Z,991.79
2023-05-09T10:26:28.146Z,991.77
2023-05-09T10:27:28.096Z,991.78
2023-05-09T10:28:28.094Z,991.75
2023-05-09T10:29:28.075Z,991.70
2023-05-09T10:30:30.330Z,991.71
2023-05-09T10:31:28.291Z,991.65
2023-05-09T10:32:28.082Z,991.62
2023-05-09T10:33:28.064Z,991.63
2023-05-09T10:34:28.045Z,991.50
2023-05-09T10:35:28.038Z,991.61
2023-05-09T10:36:28.022Z,991.61
2023-05-09T10:37:28.032Z,991.49
2023-05-09T10:38:28.009Z,991.61
2023-05-09T10:39:28.039Z,991.62
2023-05-09T10:40:28.019Z,991.59
2023-05-09T10:41:27.989Z,991.61
2023-05-09T10:42:27.974Z,991.53
2023-05-09T10:43:27.967Z,991.52
2023-05-09T10:44:27.974Z,991.52
2023-05-09T10:45:27.968Z,991.51
2023-05-09T10:46:28.015Z,991.44
2023-05-09T10:47:28.101Z,991.48
2023-05-09T10:48:27.938Z,991.44
2023-05-09T10:49:27.932Z,991.39
2023-05-09T10:50:28.652Z,991.34
2023-05-09T10:51:27.940Z,991.31
2023-05-09T10:52:29.737Z,991.40
2023-05-09T10:53:27.898Z,991.30
2023-05-09T10:54:29.304Z,991.38
2023-05-09T10:55:27.937Z,991.25
2023-05-09T10:56:27.864Z,991.26
2023-05-09T10:57:27.865Z,991.15
2023-05-09T10:58:27.859Z,991.20
2023-05-09T10:59:28.676Z,991.22
2023-05-09T11:00:27.829Z,991.22
2023-05-09T11:01:27.828Z,991.17
2023-05-09T11:02:27.850Z,991.16
2023-05-09T11:03:29.245Z,991.13
2023-05-09T11:04:29.659Z,991.09
2023-05-09T11:06:36.972Z,991.04
2023-05-09T11:07:36.964Z,991.00
2023-05-09T11:08:36.944Z,991.00
2023-05-09T11:09:37.452Z,990.92
2023-05-09T11:10:36.922Z,990.93
2023-05-09T11:11:36.916Z,990.90
2023-05-09T11:12:37.470Z,990.84
2023-05-09T11:13:36.928Z,990.83
2023-05-09T11:14:38.477Z,990.82
2023-05-09T11:15:36.904Z,990.86
2023-05-09T11:16:36.986Z,990.88
2023-05-09T11:17:36.919Z,990.93
2023-05-09T11:18:36.976Z,990.87
2023-05-09T11:19:36.866Z,990.75
2023-05-09T11:20:36.880Z,990.74
2023-05-09T11:21:36.838Z,990.78
2023-05-09T11:22:37.867Z,990.75
2023-05-09T11:23:36.838Z,990.71
2023-05-09T11:24:36.823Z,990.70
2023-05-09T11:25:36.800Z,990.71
2023-05-09T11:26:36.805Z,990.67
2023-05-09T11:27:37.914Z,990.66
2023-05-09T11:28:37.905Z,990.64
2023-05-09T11:29:37.882Z,990.63
2023-05-09T11:30:37.890Z,990.60
2023-05-09T11:31:37.917Z,990.67
2023-05-09T11:32:37.903Z,990.68
2023-05-09T11:33:41.558Z,990.69
2023-05-09T11:34:37.839Z,990.59
2023-05-09T11:35:38.485Z,990.60
2023-05-09T11:36:39.560Z,990.56
2023-05-09T11:37:37.832Z,990.57
2023-05-09T11:38:38.475Z,990.62
2023-05-09T11:39:37.809Z,990.59
2023-05-09T11:40:40.576Z,990.61
2023-05-09T11:41:39.469Z,990.51
2023-05-09T11:42:38.579Z,990.53
2023-05-09T11:43:37.764Z,990.48
2023-05-09T11:44:37.772Z,990.55
2023-05-09T11:45:38.065Z,990.52
2023-05-09T11:46:56.423Z,990.54
2023-05-09T11:47:37.823Z,990.49
2023-05-09T11:48:38.483Z,990.42
2023-05-09T11:49:37.819Z,990.47
2023-05-09T11:50:37.746Z,990.43
2023-05-09T11:51:37.736Z,990.40
2023-05-09T11:52:41.490Z,990.39
2023-05-09T11:53:40.483Z,990.36
2023-05-09T11:54:38.063Z,990.32
2023-05-09T11:55:37.711Z,990.27
2023-05-09T11:56:39.589Z,990.22
2023-05-09T11:57:37.678Z,990.19
2023-05-09T11:58:42.488Z,990.20
2023-05-09T11:59:38.579Z,990.19
2023-05-09T12:00:38.478Z,990.19
2023-05-09T12:01:37.662Z,990.15
2023-05-09T12:02:37.758Z,990.09
2023-05-09T12:03:39.638Z,990.12
2023-05-09T12:04:37.643Z,990.13
2023-05-09T12:05:37.724Z,990.07
2023-05-09T12:06:37.609Z,990.12
2023-05-09T12:07:37.602Z,990.07
2023-05-09T12:08:37.595Z,990.01
2023-05-09T12:09:37.597Z,989.91
2023-05-09T12:10:37.617Z,989.96
2023-05-09T12:11:38.171Z,989.94
2023-05-09T12:12:37.562Z,989.96
2023-05-09T12:13:37.568Z,989.96
2023-05-09T12:14:37.540Z,989.90
2023-05-09T12:15:37.804Z,989.90
2023-05-09T12:16:37.544Z,989.93
2023-05-09T12:17:38.501Z,989.88
2023-05-09T12:18:38.518Z,989.91
2023-05-09T12:19:37.503Z,989.83
2023-05-09T12:20:37.530Z,989.78
2023-05-09T12:21:37.602Z,989.72
2023-05-09T12:22:37.548Z,989.80
2023-05-09T12:23:37.475Z,989.78
2023-05-09T12:24:37.991Z,989.71
2023-05-09T12:25:37.492Z,989.70
2023-05-09T12:26:37.463Z,989.69
2023-05-09T12:27:37.491Z,989.66
2023-05-09T12:28:37.451Z,989.66
2023-05-09T12:29:37.433Z,989.76
2023-05-09T12:30:37.433Z,989.77
2023-05-09T12:31:37.446Z,989.77
2023-05-09T12:32:37.458Z,989.72
2023-05-09T12:33:37.407Z,989.69